createdAt,value
2018-07-07T00:00:37.410Z,2.30
2018-07-07T00:01:37.590Z,2.30
2018-07-07T00:02:37.764Z,2.40
2018-07-07T00:03:37.948Z,2.30
2018-07-07T00:04:38.113Z,2.70
2018-07-07T00:05:38.294Z,3.40
2018-07-07T00:06:38.477Z,2.80
2018-07-07T00:07:38.665Z,2.90
2018-07-07T00:08:38.841Z,2.50
2018-07-07T00:09:39.032Z,2.90
2018-07-07T00:10:39.204Z,2.90
2018-07-07T00:11:39.391Z,2.50
2018-07-07T00:12:39.570Z,2.20
2018-07-07T00:13:39.753Z,2.40
2018-07-07T00:14:39.940Z,2.20
2018-07-07T00:15:40.113Z,2.90
2018-07-07T00:16:40.297Z,3.10
2018-07-07T00:17:40.478Z,3.10
2018-07-07T00:18:40.670Z,2.90
2018-07-07T00:19:40.878Z,3.00
2018-07-07T00:20:41.047Z,2.70
2018-07-07T00:21:41.230Z,4.00
2018-07-07T00:22:41.419Z,3.00
2018-07-07T00:23:41.606Z,3.00
2018-07-07T00:24:41.782Z,2.40
2018-07-07T00:25:41.963Z,3.20
2018-07-07T00:26:42.148Z,3.60
2018-07-07T00:27:42.329Z,3.00
2018-07-07T00:28:42.508Z,4.70
2018-07-07T00:29:42.683Z,3.00
2018-07-07T00:30:42.864Z,2.20
2018-07-07T00:31:43.040Z,2.10
2018-07-07T00:32:43.216Z,3.30
2018-07-07T00:33:43.397Z,2.90
2018-07-07T00:34:43.573Z,2.90
2018-07-07T00:35:43.758Z,3.20
2018-07-07T00:36:43.934Z,3.80
2018-07-07T00:37:44.112Z,3.20
2018-07-07T00:38:44.299Z,2.50
2018-07-07T00:39:44.480Z,3.10
2018-07-07T00:40:44.656Z,3.80
2018-07-07T00:41:44.829Z,2.50
2018-07-07T00:42:45.010Z,3.50
2018-07-07T00:43:45.193Z,2.40
2018-07-07T00:44:45.377Z,2.30
2018-07-07T00:45:45.553Z,2.10
2018-07-07T00:46:45.729Z,3.70
2018-07-07T00:47:45.910Z,2.90
2018-07-07T00:48:46.088Z,2.80
2018-07-07T00:49:46.264Z,2.40
2018-07-07T00:50:46.448Z,2.40
2018-07-07T00:51:46.628Z,3.40
2018-07-07T00:52:46.811Z,3.30
2018-07-07T00:53:46.997Z,2.70
2018-07-07T00:54:47.172Z,3.80
2018-07-07T00:55:47.355Z,2.70
2018-07-07T00:56:47.540Z,3.50
2018-07-07T00:57:47.714Z,2.80
2018-07-07T00:58:47.895Z,3.10
2018-07-07T00:59:48.068Z,2.30
2018-07-07T01:00:48.251Z,2.60
2018-07-07T01:01:48.431Z,2.40
2018-07-07T01:02:48.609Z,3.40
2018-07-07T01:03:48.792Z,2.90
2018-07-07T01:04:48.975Z,2.80
2018-07-07T01:05:49.157Z,2.80
2018-07-07T01:06:49.337Z,2.20
2018-07-07T01:07:49.517Z,2.70
2018-07-07T01:08:49.699Z,2.40
2018-07-07T01:09:49.872Z,2.70
2018-07-07T01:10:50.047Z,2.30
2018-07-07T01:11:50.224Z,2.10
2018-07-07T01:12:50.407Z,2.80
2018-07-07T01:13:50.602Z,3.80
2018-07-07T01:14:50.793Z,2.90
2018-07-07T01:15:50.973Z,2.70
2018-07-07T01:16:51.147Z,3.30
2018-07-07T01:17:51.329Z,2.30
2018-07-07T01:18:51.504Z,2.30
2018-07-07T01:19:51.679Z,3.10
2018-07-07T01:20:51.856Z,3.70
2018-07-07T01:21:52.045Z,2.80
2018-07-07T01:22:52.218Z,2.90
2018-07-07T01:23:52.392Z,2.40
2018-07-07T01:24:52.583Z,2.30
2018-07-07T01:25:52.760Z,3.70
2018-07-07T01:26:52.947Z,3.70
2018-07-07T01:27:53.126Z,3.00
2018-07-07T01:28:53.305Z,2.80
2018-07-07T01:29:53.485Z,2.90
2018-07-07T01:30:53.665Z,2.90
2018-07-07T01:31:53.838Z,3.10
2018-07-07T01:32:54.016Z,2.30
2018-07-07T01:33:54.189Z,2.50
2018-07-07T01:34:54.372Z,3.30
2018-07-07T01:35:54.554Z,3.50
2018-07-07T01:36:54.731Z,2.90
2018-07-07T01:37:54.918Z,2.70
2018-07-07T01:38:55.095Z,3.30
2018-07-07T01:39:55.276Z,3.00
2018-07-07T01:40:55.451Z,3.00
2018-07-07T01:41:55.635Z,2.50
2018-07-07T01:42:55.816Z,2.60
2018-07-07T01:43:55.991Z,4.60
2018-07-07T01:44:56.171Z,2.60
2018-07-07T01:45:56.350Z,3.00
2018-07-07T01:46:56.533Z,3.20
2018-07-07T01:47:56.714Z,3.30
2018-07-07T01:48:56.899Z,2.60
2018-07-07T01:49:57.073Z,3.90
2018-07-07T01:50:57.252Z,3.10
2018-07-07T01:51:57.426Z,3.10
2018-07-07T01:52:57.607Z,2.30
2018-07-07T01:53:57.797Z,2.50
2018-07-07T01:54:57.970Z,2.50
2018-07-07T01:55:58.159Z,4.00
2018-07-07T01:56:58.332Z,3.00
2018-07-07T01:57:58.517Z,3.50
2018-07-07T01:58:58.693Z,2.80
2018-07-07T01:59:58.868Z,2.60
2018-07-07T02:00:59.063Z,3.20
2018-07-07T02:01:59.248Z,3.70
2018-07-07T02:02:59.425Z,3.00
2018-07-07T02:04:01.535Z,3.10
2018-07-07T02:04:59.807Z,3.10
2018-07-07T02:05:59.997Z,4.20
2018-07-07T02:07:00.178Z,3.10
2018-07-07T02:08:00.355Z,3.20
2018-07-07T02:09:00.544Z,3.20
2018-07-07T02:10:00.727Z,3.00
2018-07-07T02:11:00.916Z,4.60
2018-07-07T02:12:01.101Z,3.20
2018-07-07T02:13:01.287Z,3.20
2018-07-07T02:14:01.468Z,3.50
2018-07-07T02:15:01.652Z,4.50
2018-07-07T02:16:01.833Z,3.00
2018-07-07T02:17:02.014Z,2.70
2018-07-07T02:18:02.191Z,3.80
2018-07-07T02:19:02.374Z,3.70
2018-07-07T02:20:02.557Z,3.70
2018-07-07T02:21:02.745Z,3.70
2018-07-07T02:22:02.931Z,3.10
2018-07-07T02:23:03.105Z,3.20
2018-07-07T02:24:03.289Z,3.50
2018-07-07T02:25:03.474Z,4.50
2018-07-07T02:26:03.656Z,3.30
2018-07-07T02:27:03.834Z,3.60
2018-07-07T02:28:04.021Z,3.10
2018-07-07T02:29:04.212Z,3.90
2018-07-07T02:30:04.388Z,3.90
2018-07-07T02:31:04.573Z,4.30
2018-07-07T02:32:04.735Z,3.60
2018-07-07T02:33:04.910Z,4.30
2018-07-07T02:34:05.096Z,3.60
2018-07-07T02:35:05.278Z,4.00
2018-07-07T02:36:05.463Z,3.40
2018-07-07T02:37:05.646Z,4.40
2018-07-07T02:38:05.824Z,3.60
2018-07-07T02:39:06.006Z,4.60
2018-07-07T02:40:06.187Z,4.70
2018-07-07T02:41:06.367Z,4.10
2018-07-07T02:42:06.552Z,3.50
2018-07-07T02:43:06.734Z,3.80
2018-07-07T02:44:06.918Z,3.70
2018-07-07T02:45:07.105Z,5.40
2018-07-07T02:46:07.319Z,4.50
2018-07-07T02:47:07.462Z,3.40
2018-07-07T02:48:07.641Z,4.40
2018-07-07T02:49:07.819Z,4.40
2018-07-07T02:50:08.000Z,4.80
2018-07-07T02:51:08.189Z,3.50
2018-07-07T02:52:08.360Z,3.50
2018-07-07T02:53:08.551Z,4.60
2018-07-07T02:54:08.727Z,4.60
2018-07-07T02:55:08.915Z,3.40
2018-07-07T02:56:09.100Z,4.10
2018-07-07T02:57:09.284Z,3.40
2018-07-07T02:58:09.461Z,4.90
2018-07-07T02:59:09.644Z,3.30
2018-07-07T03:00:09.888Z,3.90
2018-07-07T03:01:09.937Z,3.80
2018-07-07T03:02:10.120Z,4.20
2018-07-07T03:03:10.307Z,3.50
2018-07-07T03:04:10.478Z,3.80
2018-07-07T03:05:10.655Z,4.00
2018-07-07T03:06:10.832Z,3.60
2018-07-07T03:07:11.024Z,3.30
2018-07-07T03:08:11.200Z,4.10
2018-07-07T03:09:11.386Z,3.80
2018-07-07T03:10:11.559Z,4.70
2018-07-07T03:11:11.752Z,4.30
2018-07-07T03:12:11.929Z,3.80
2018-07-07T03:13:12.098Z,5.20
2018-07-07T03:14:12.287Z,4.50
2018-07-07T03:15:12.467Z,4.20
2018-07-07T03:16:12.655Z,4.20
2018-07-07T03:17:12.848Z,4.20
2018-07-07T03:18:13.021Z,4.20
2018-07-07T03:19:13.210Z,4.40
2018-07-07T03:20:13.393Z,4.90
2018-07-07T03:21:13.574Z,3.70
2018-07-07T03:22:13.768Z,3.90
2018-07-07T03:23:13.944Z,5.20
2018-07-07T03:24:14.128Z,5.50
2018-07-07T03:25:14.307Z,4.20
2018-07-07T03:26:14.499Z,3.40
2018-07-07T03:27:14.669Z,3.60
2018-07-07T03:28:14.852Z,4.00
2018-07-07T03:29:15.038Z,4.40
2018-07-07T03:30:15.211Z,3.60
2018-07-07T03:31:15.398Z,4.10
2018-07-07T03:32:15.583Z,4.40
2018-07-07T03:33:15.770Z,3.30
2018-07-07T03:34:15.947Z,4.20
2018-07-07T03:35:16.123Z,3.70
2018-07-07T03:36:16.317Z,4.10
2018-07-07T03:37:16.489Z,4.20
2018-07-07T03:38:16.671Z,3.50
2018-07-07T03:39:16.857Z,5.00
2018-07-07T03:40:17.018Z,4.00
2018-07-07T03:41:17.193Z,4.50
2018-07-07T03:42:17.432Z,4.00
2018-07-07T03:43:17.556Z,3.50
2018-07-07T03:44:17.734Z,6.40
2018-07-07T03:45:17.908Z,3.90
2018-07-07T03:46:18.083Z,3.80
2018-07-07T03:47:18.259Z,3.90
2018-07-07T03:48:18.444Z,5.00
2018-07-07T03:49:18.633Z,4.90
2018-07-07T03:50:18.794Z,4.00
2018-07-07T03:51:18.988Z,5.40
2018-07-07T03:52:19.160Z,3.10
2018-07-07T03:53:19.334Z,4.40
2018-07-07T03:54:19.528Z,3.60
2018-07-07T03:55:19.707Z,3.80
2018-07-07T03:56:19.892Z,4.20
2018-07-07T03:57:20.064Z,3.50
2018-07-07T03:58:20.243Z,4.10
2018-07-07T03:59:20.422Z,4.20
2018-07-07T04:00:20.596Z,3.50
2018-07-07T04:01:20.773Z,3.80
2018-07-07T04:02:20.954Z,5.20
2018-07-07T04:03:21.132Z,3.50
2018-07-07T04:04:21.302Z,4.10
2018-07-07T04:05:21.480Z,4.70
2018-07-07T04:06:21.666Z,4.30
2018-07-07T04:07:21.852Z,4.20
2018-07-07T04:08:22.012Z,3.80
2018-07-07T04:09:22.200Z,4.50
2018-07-07T04:10:22.412Z,3.70
2018-07-07T04:11:22.578Z,4.10
2018-07-07T04:12:22.767Z,6.10
2018-07-07T04:13:22.946Z,3.80
2018-07-07T04:14:23.124Z,4.10
2018-07-07T04:15:23.320Z,4.20
2018-07-07T04:16:23.496Z,3.80
2018-07-07T04:17:23.674Z,4.00
2018-07-07T04:18:23.849Z,4.10
2018-07-07T04:19:24.042Z,4.00
2018-07-07T04:20:24.227Z,4.10
2018-07-07T04:21:24.404Z,3.80
2018-07-07T04:22:24.589Z,5.10
2018-07-07T04:23:24.766Z,5.00
2018-07-07T04:24:24.954Z,4.40
2018-07-07T04:25:25.135Z,5.00
2018-07-07T04:26:25.319Z,4.20
2018-07-07T04:27:25.503Z,3.80
2018-07-07T04:28:25.823Z,5.00
2018-07-07T04:29:25.859Z,4.50
2018-07-07T04:30:26.041Z,3.80
2018-07-07T04:31:26.789Z,4.00
2018-07-07T04:32:26.364Z,4.90
2018-07-07T04:33:26.548Z,4.50
2018-07-07T04:34:26.789Z,5.10
2018-07-07T04:35:26.849Z,4.00
2018-07-07T04:36:27.028Z,4.70
2018-07-07T04:37:27.204Z,4.40
2018-07-07T04:38:27.391Z,4.40
2018-07-07T04:39:27.585Z,4.20
2018-07-07T04:40:27.764Z,3.90
2018-07-07T04:41:27.952Z,4.20
2018-07-07T04:42:28.128Z,4.60
2018-07-07T04:43:28.322Z,4.70
2018-07-07T04:44:28.501Z,4.10
2018-07-07T04:45:28.684Z,4.30
2018-07-07T04:46:28.875Z,4.40
2018-07-07T04:47:29.064Z,4.20
2018-07-07T04:48:29.246Z,4.80
2018-07-07T04:49:29.456Z,4.20
2018-07-07T04:50:29.636Z,4.10
2018-07-07T04:51:29.820Z,5.20
2018-07-07T04:52:30.164Z,4.70
2018-07-07T04:53:30.185Z,4.20
2018-07-07T04:54:30.360Z,4.20
2018-07-07T04:55:30.552Z,4.10
2018-07-07T04:56:30.774Z,4.30
2018-07-07T04:57:30.947Z,5.10
2018-07-07T04:58:31.126Z,4.90
2018-07-07T04:59:31.357Z,4.00
2018-07-07T05:00:31.524Z,4.80
2018-07-07T05:01:31.746Z,4.20
2018-07-07T05:02:31.951Z,4.30
2018-07-07T05:03:32.112Z,4.10
2018-07-07T05:04:32.301Z,4.30
2018-07-07T05:05:32.479Z,5.00
2018-07-07T05:06:32.708Z,4.70
2018-07-07T05:07:32.862Z,4.60
2018-07-07T05:08:33.045Z,4.10
2018-07-07T05:09:33.266Z,3.80
2018-07-07T05:10:33.473Z,4.50
2018-07-07T05:11:33.661Z,4.10
2018-07-07T05:12:33.854Z,4.00
2018-07-07T05:13:34.021Z,4.70
2018-07-07T05:14:34.200Z,4.00
2018-07-07T05:15:34.434Z,4.20
2018-07-07T05:16:34.560Z,4.00
2018-07-07T05:17:34.779Z,4.10
2018-07-07T05:18:34.847Z,4.50
2018-07-07T05:19:35.037Z,5.40
2018-07-07T05:20:35.218Z,3.90
2018-07-07T05:21:35.395Z,4.10
2018-07-07T05:22:35.609Z,5.10
2018-07-07T05:23:35.772Z,5.00
2018-07-07T05:24:35.945Z,4.30
2018-07-07T05:25:36.124Z,4.80
2018-07-07T05:26:36.310Z,4.10
2018-07-07T05:27:36.857Z,4.20
2018-07-07T05:28:39.134Z,4.30
2018-07-07T05:29:39.579Z,4.00
2018-07-07T05:30:40.223Z,4.20
2018-07-07T05:31:37.195Z,4.00
2018-07-07T05:32:37.417Z,4.80
2018-07-07T05:33:37.668Z,4.90
2018-07-07T05:34:41.791Z,4.00
2018-07-07T05:35:40.717Z,4.50
2018-07-07T05:36:39.552Z,4.30
2018-07-07T05:37:41.313Z,4.00
2018-07-07T05:38:40.824Z,5.80
2018-07-07T05:39:41.364Z,4.90
2018-07-07T05:40:40.184Z,4.10
2018-07-07T05:41:41.405Z,4.30
2018-07-07T05:42:40.754Z,5.80
2018-07-07T05:43:41.213Z,4.20
2018-07-07T05:44:40.662Z,3.90
2018-07-07T05:45:40.290Z,4.80
2018-07-07T05:46:41.850Z,3.50
2018-07-07T05:47:39.857Z,4.90
2018-07-07T05:48:40.044Z,3.90
2018-07-07T05:49:40.239Z,3.70
2018-07-07T05:50:40.416Z,5.00
2018-07-07T05:51:40.597Z,5.70
2018-07-07T05:52:40.816Z,4.40
2018-07-07T05:53:41.007Z,4.30
2018-07-07T05:54:41.196Z,3.70
2018-07-07T05:55:41.393Z,4.70
2018-07-07T05:56:41.596Z,4.40
2018-07-07T05:57:41.768Z,5.30
2018-07-07T05:58:41.975Z,3.90
2018-07-07T05:59:42.181Z,5.00
2018-07-07T06:00:42.366Z,5.50
2018-07-07T06:01:42.546Z,3.90
2018-07-07T06:02:42.725Z,3.80
2018-07-07T06:03:42.926Z,4.10
2018-07-07T06:04:43.121Z,4.20
2018-07-07T06:05:43.302Z,5.70
2018-07-07T06:06:43.473Z,3.80
2018-07-07T06:07:43.666Z,4.70
2018-07-07T06:08:43.846Z,4.10
2018-07-07T06:09:44.066Z,5.10
2018-07-07T06:10:44.158Z,4.00
2018-07-07T06:11:44.763Z,6.00
2018-07-07T06:12:44.515Z,4.80
2018-07-07T06:13:44.579Z,4.00
2018-07-07T06:14:44.797Z,4.80
2018-07-07T06:15:44.942Z,4.50
2018-07-07T06:16:45.122Z,4.00
2018-07-07T06:17:45.296Z,4.80
2018-07-07T06:18:45.477Z,3.80
2018-07-07T06:19:45.700Z,4.60
2018-07-07T06:20:45.885Z,4.00
2018-07-07T06:21:46.063Z,3.70
2018-07-07T06:22:46.249Z,3.50
2018-07-07T06:23:46.430Z,4.30
2018-07-07T06:24:46.626Z,3.40
2018-07-07T06:25:46.790Z,3.50
2018-07-07T06:26:47.034Z,4.50
2018-07-07T06:27:47.195Z,3.60
2018-07-07T06:28:47.361Z,3.40
2018-07-07T06:29:47.545Z,3.90
2018-07-07T06:30:47.715Z,4.30
2018-07-07T06:31:47.891Z,3.30
2018-07-07T06:32:48.096Z,3.20
2018-07-07T06:33:48.268Z,5.70
2018-07-07T06:34:48.459Z,3.20
2018-07-07T06:35:48.638Z,3.40
2018-07-07T06:36:48.825Z,3.50
2018-07-07T06:37:49.025Z,4.20
2018-07-07T06:38:49.199Z,4.40
2018-07-07T06:39:49.378Z,3.40
2018-07-07T06:40:49.553Z,3.80
2018-07-07T06:41:49.737Z,3.80
2018-07-07T06:42:49.956Z,3.50
2018-07-07T06:43:50.177Z,3.40
2018-07-07T06:44:50.303Z,4.10
2018-07-07T06:45:50.483Z,4.10
2018-07-07T06:46:50.662Z,3.80
2018-07-07T06:47:50.851Z,3.90
2018-07-07T06:48:51.029Z,3.60
2018-07-07T06:49:51.210Z,4.70
2018-07-07T06:50:51.402Z,4.70
2018-07-07T06:51:51.582Z,3.50
2018-07-07T06:52:51.765Z,3.20
2018-07-07T06:53:51.995Z,4.00
2018-07-07T06:54:52.124Z,3.90
2018-07-07T06:55:52.313Z,4.20
2018-07-07T06:56:52.490Z,3.80
2018-07-07T06:57:52.686Z,3.90
2018-07-07T06:58:52.876Z,4.00
2018-07-07T06:59:53.113Z,3.30
2018-07-07T07:00:53.248Z,3.50
2018-07-07T07:01:53.433Z,4.00
2018-07-07T07:02:53.614Z,3.30
2018-07-07T07:03:53.797Z,2.80
2018-07-07T07:04:53.980Z,3.00
2018-07-07T07:05:54.174Z,4.20
2018-07-07T07:06:54.359Z,2.70
2018-07-07T07:07:54.542Z,4.10
2018-07-07T07:08:54.731Z,3.00
2018-07-07T07:09:54.929Z,2.80
2018-07-07T07:10:55.206Z,2.40
2018-07-07T07:11:55.311Z,3.40
2018-07-07T07:12:55.496Z,2.10
2018-07-07T07:13:55.671Z,2.30
2018-07-07T07:14:55.858Z,2.70
2018-07-07T07:15:56.053Z,2.40
2018-07-07T07:16:56.540Z,2.30
2018-07-07T07:18:03.281Z,2.30
2018-07-07T07:18:56.491Z,2.30
2018-07-07T07:19:56.930Z,2.30
2018-07-07T07:20:57.251Z,1.60
2018-07-07T07:21:57.394Z,2.50
2018-07-07T07:22:57.497Z,1.50
2018-07-07T07:23:57.693Z,1.70
2018-07-07T07:24:58.137Z,2.30
2018-07-07T07:25:58.134Z,2.10
2018-07-07T07:26:58.373Z,3.00
2018-07-07T07:27:58.391Z,1.40
2018-07-07T07:28:58.629Z,1.80
2018-07-07T07:29:58.815Z,1.90
2018-07-07T07:30:58.812Z,1.30
2018-07-07T07:31:59.161Z,1.70
2018-07-07T07:32:59.612Z,1.50
2018-07-07T07:33:59.526Z,1.90
2018-07-07T07:34:59.796Z,1.50
2018-07-07T07:36:00.184Z,2.10
2018-07-07T07:37:00.179Z,1.60
2018-07-07T07:38:00.396Z,1.80
2018-07-07T07:39:00.730Z,1.80
2018-07-07T07:40:00.730Z,1.40
2018-07-07T07:41:02.322Z,1.30
2018-07-07T07:42:01.899Z,2.00
2018-07-07T07:43:01.086Z,1.30
2018-07-07T07:44:02.133Z,1.50
2018-07-07T07:45:01.751Z,1.30
2018-07-07T07:46:02.806Z,2.40
2018-07-07T07:47:01.849Z,2.10
2018-07-07T07:48:02.413Z,1.30
2018-07-07T07:49:01.957Z,1.70
2018-07-07T07:50:02.154Z,2.50
2018-07-07T07:51:02.372Z,1.00
2018-07-07T07:52:02.534Z,0.80
2018-07-07T07:53:02.732Z,1.10
2018-07-07T07:54:02.926Z,1.00
2018-07-07T07:55:03.169Z,1.70
2018-07-07T07:56:03.320Z,1.00
2018-07-07T07:57:03.516Z,2.00
2018-07-07T07:58:03.906Z,1.50
2018-07-07T07:59:04.068Z,1.70
2018-07-07T08:00:04.146Z,1.50
2018-07-07T08:01:04.346Z,1.30
2018-07-07T08:02:04.554Z,1.70
2018-07-07T08:03:04.749Z,1.10
2018-07-07T08:04:05.018Z,1.70
2018-07-07T08:05:05.164Z,1.30
2018-07-07T08:06:05.356Z,1.20
2018-07-07T08:07:05.617Z,1.70
2018-07-07T08:08:05.758Z,1.50
2018-07-07T08:09:05.915Z,1.50
2018-07-07T08:10:06.118Z,0.90
2018-07-07T08:11:06.426Z,1.40
2018-07-07T08:12:08.674Z,1.10
2018-07-07T08:13:06.812Z,1.40
2018-07-07T08:14:06.838Z,1.00
2018-07-07T08:15:07.028Z,1.10
2018-07-07T08:16:07.249Z,1.60
2018-07-07T08:17:07.475Z,0.80
2018-07-07T08:18:08.636Z,1.10
2018-07-07T08:19:08.591Z,1.30
2018-07-07T08:20:07.926Z,1.50
2018-07-07T08:21:08.131Z,1.10
2018-07-07T08:22:08.332Z,0.80
2018-07-07T08:23:08.532Z,1.30
2018-07-07T08:24:08.819Z,1.00
2018-07-07T08:25:09.381Z,0.90
2018-07-07T08:26:09.128Z,1.50
2018-07-07T08:27:09.333Z,1.50
2018-07-07T08:28:10.678Z,1.20
2018-07-07T08:29:09.929Z,1.30
2018-07-07T08:30:09.891Z,1.60
2018-07-07T08:31:11.430Z,0.80
2018-07-07T08:32:10.582Z,1.40
2018-07-07T08:33:10.782Z,1.10
2018-07-07T08:34:10.698Z,2.00
2018-07-07T08:35:12.381Z,2.20
2018-07-07T08:36:11.109Z,0.90
2018-07-07T08:37:11.320Z,1.00
2018-07-07T08:38:12.742Z,2.60
2018-07-07T08:39:11.695Z,0.90
2018-07-07T08:40:11.879Z,1.30
2018-07-07T08:41:12.088Z,3.00
2018-07-07T08:42:12.322Z,1.80
2018-07-07T08:43:12.477Z,1.40
2018-07-07T08:44:12.680Z,1.30
2018-07-07T08:45:12.878Z,1.20
2018-07-07T08:46:15.331Z,1.70
2018-07-07T08:47:13.397Z,1.70
2018-07-07T08:48:13.473Z,1.60
2018-07-07T08:49:13.716Z,1.50
2018-07-07T08:50:13.901Z,2.30
2018-07-07T08:51:14.233Z,1.80
2018-07-07T08:52:14.257Z,2.20
2018-07-07T08:53:14.615Z,1.50
2018-07-07T08:54:14.642Z,2.40
2018-07-07T08:55:14.847Z,1.30
2018-07-07T08:56:15.059Z,1.50
2018-07-07T08:57:15.257Z,2.40
2018-07-07T08:58:15.470Z,2.80
2018-07-07T08:59:15.673Z,1.60
2018-07-07T09:00:15.964Z,1.50
2018-07-07T09:01:16.012Z,2.10
2018-07-07T09:02:16.326Z,2.40
2018-07-07T09:03:16.374Z,1.40
2018-07-07T09:04:16.638Z,1.50
2018-07-07T09:05:16.823Z,3.30
2018-07-07T09:06:17.036Z,1.90
2018-07-07T09:07:17.345Z,1.40
2018-07-07T09:08:17.393Z,1.30
2018-07-07T09:09:17.658Z,1.80
2018-07-07T09:10:17.747Z,1.20
2018-07-07T09:11:18.189Z,1.30
2018-07-07T09:12:18.817Z,1.90
2018-07-07T09:13:18.660Z,1.30
2018-07-07T09:14:18.677Z,2.20
2018-07-07T09:15:18.663Z,1.70
2018-07-07T09:16:18.883Z,2.00
2018-07-07T09:17:19.085Z,1.40
2018-07-07T09:18:19.316Z,1.60
2018-07-07T09:19:19.534Z,2.00
2018-07-07T09:20:19.722Z,1.60
2018-07-07T09:21:19.958Z,3.50
2018-07-07T09:22:20.133Z,2.50
2018-07-07T09:23:20.364Z,1.70
2018-07-07T09:24:20.560Z,1.50
2018-07-07T09:25:20.798Z,2.40
2018-07-07T09:26:20.876Z,2.10
2018-07-07T09:27:21.077Z,2.50
2018-07-07T09:28:21.260Z,2.00
2018-07-07T09:29:21.449Z,1.60
2018-07-07T09:30:21.648Z,1.50
2018-07-07T09:31:21.855Z,2.20
2018-07-07T09:32:22.067Z,1.80
2018-07-07T09:33:22.261Z,1.50
2018-07-07T09:34:22.453Z,1.50
2018-07-07T09:35:22.647Z,2.00
2018-07-07T09:36:22.848Z,1.40
2018-07-07T09:37:23.038Z,1.70
2018-07-07T09:38:23.236Z,1.90
2018-07-07T09:39:23.452Z,1.80
2018-07-07T09:40:23.646Z,3.00
2018-07-07T09:41:23.877Z,2.20
2018-07-07T09:42:24.068Z,2.70
2018-07-07T09:43:24.251Z,1.50
2018-07-07T09:44:24.447Z,2.50
2018-07-07T09:45:24.652Z,2.70
2018-07-07T09:46:24.849Z,2.40
2018-07-07T09:47:25.042Z,2.40
2018-07-07T09:48:25.235Z,1.90
2018-07-07T09:49:25.449Z,2.50
2018-07-07T09:50:25.645Z,2.00
2018-07-07T09:51:25.838Z,2.30
2018-07-07T09:52:26.035Z,2.10
2018-07-07T09:53:26.220Z,2.90
2018-07-07T09:54:26.442Z,1.70
2018-07-07T09:55:26.651Z,2.30
2018-07-07T09:56:26.889Z,1.40
2018-07-07T09:57:27.018Z,1.60
2018-07-07T09:58:27.232Z,2.70
2018-07-07T09:59:27.423Z,2.20
2018-07-07T10:00:27.613Z,1.90
2018-07-07T10:01:27.818Z,2.00
2018-07-07T10:02:28.009Z,1.60
2018-07-07T10:03:28.201Z,1.80
2018-07-07T10:04:28.405Z,2.40
2018-07-07T10:05:28.598Z,1.70
2018-07-07T10:06:28.801Z,1.50
2018-07-07T10:07:29.030Z,2.50
2018-07-07T10:08:29.198Z,2.60
2018-07-07T10:09:29.406Z,2.20
2018-07-07T10:10:29.593Z,3.50
2018-07-07T10:11:29.791Z,1.60
2018-07-07T10:12:29.979Z,2.40
2018-07-07T10:13:30.221Z,2.10
2018-07-07T10:14:30.369Z,1.80
2018-07-07T10:15:30.574Z,1.60
2018-07-07T10:16:30.765Z,2.00
2018-07-07T10:17:30.948Z,1.60
2018-07-07T10:18:31.142Z,2.20
2018-07-07T10:19:31.332Z,1.90
2018-07-07T10:20:31.527Z,1.70
2018-07-07T10:21:31.725Z,2.90
2018-07-07T10:22:31.909Z,2.20
2018-07-07T10:23:32.100Z,1.40
2018-07-07T10:24:32.284Z,2.00
2018-07-07T10:25:32.476Z,2.00
2018-07-07T10:26:32.667Z,1.40
2018-07-07T10:27:32.856Z,2.10
2018-07-07T10:28:33.067Z,1.60
2018-07-07T10:29:33.238Z,1.50
2018-07-07T10:30:33.431Z,1.60
2018-07-07T10:31:33.643Z,1.80
2018-07-07T10:32:33.818Z,2.90
2018-07-07T10:33:34.005Z,1.80
2018-07-07T10:34:34.195Z,1.80
2018-07-07T10:35:34.387Z,2.00
2018-07-07T10:36:34.617Z,3.10
2018-07-07T10:37:34.874Z,1.90
2018-07-07T10:38:34.998Z,1.40
2018-07-07T10:39:35.188Z,1.50
2018-07-07T10:40:35.393Z,1.90
2018-07-07T10:41:35.576Z,3.50
2018-07-07T10:42:35.767Z,1.50
2018-07-07T10:43:35.954Z,2.10
2018-07-07T10:44:36.138Z,1.70
2018-07-07T10:45:36.392Z,2.30
2018-07-07T10:46:36.516Z,2.90
2018-07-07T10:47:36.700Z,2.00
2018-07-07T10:48:36.893Z,2.20
2018-07-07T10:49:37.088Z,1.50
2018-07-07T10:50:37.282Z,2.60
2018-07-07T10:51:37.470Z,2.10
2018-07-07T10:52:37.717Z,1.40
2018-07-07T10:53:37.779Z,2.00
2018-07-07T10:54:37.966Z,3.00
2018-07-07T10:55:38.220Z,1.80
2018-07-07T10:56:38.341Z,1.60
2018-07-07T10:57:38.521Z,1.90
2018-07-07T10:58:38.721Z,1.70
2018-07-07T10:59:38.894Z,3.00
2018-07-07T11:00:39.082Z,1.60
2018-07-07T11:01:39.265Z,1.60
2018-07-07T11:02:39.497Z,1.70
2018-07-07T11:03:39.650Z,1.50
2018-07-07T11:04:39.844Z,1.80
2018-07-07T11:05:40.037Z,2.20
2018-07-07T11:06:40.227Z,2.20
2018-07-07T11:07:40.425Z,1.50
2018-07-07T11:08:40.602Z,1.90
2018-07-07T11:09:40.799Z,3.60
2018-07-07T11:10:40.980Z,1.90
2018-07-07T11:11:41.221Z,3.30
2018-07-07T11:12:41.364Z,4.30
2018-07-07T11:13:41.550Z,1.70
2018-07-07T11:14:41.736Z,2.20
2018-07-07T11:15:41.916Z,2.30
2018-07-07T11:16:42.121Z,1.80
2018-07-07T11:17:42.312Z,2.40
2018-07-07T11:18:42.534Z,2.20
2018-07-07T11:19:42.759Z,1.70
2018-07-07T11:20:42.925Z,1.40
2018-07-07T11:21:43.587Z,1.50
2018-07-07T11:22:43.272Z,1.50
2018-07-07T11:23:43.514Z,2.00
2018-07-07T11:24:43.595Z,1.40
2018-07-07T11:25:43.812Z,1.90
2018-07-07T11:26:43.996Z,3.00
2018-07-07T11:27:44.233Z,2.20
2018-07-07T11:28:44.291Z,3.10
2018-07-07T11:29:44.568Z,2.40
2018-07-07T11:30:44.619Z,2.30
2018-07-07T11:31:44.888Z,2.00
2018-07-07T11:32:44.986Z,1.40
2018-07-07T11:33:45.199Z,1.30
2018-07-07T11:34:45.396Z,2.00
2018-07-07T11:35:45.583Z,2.20
2018-07-07T11:36:46.194Z,2.40
2018-07-07T11:37:46.126Z,1.60
2018-07-07T11:38:46.139Z,2.40
2018-07-07T11:39:46.323Z,2.30
2018-07-07T11:40:46.513Z,2.20
2018-07-07T11:41:46.702Z,1.90
2018-07-07T11:42:46.881Z,2.50
2018-07-07T11:43:47.103Z,1.70
2018-07-07T11:44:47.285Z,2.00
2018-07-07T11:45:47.497Z,2.60
2018-07-07T11:46:47.685Z,1.90
2018-07-07T11:47:47.870Z,1.60
2018-07-07T11:48:48.059Z,3.50
2018-07-07T11:49:48.245Z,2.30
2018-07-07T11:50:48.472Z,2.80
2018-07-07T11:51:48.666Z,2.20
2018-07-07T11:52:48.881Z,1.90
2018-07-07T11:53:49.044Z,2.10
2018-07-07T11:54:49.529Z,1.50
2018-07-07T11:55:49.466Z,2.70
2018-07-07T11:56:49.661Z,1.50
2018-07-07T11:57:49.858Z,2.50
2018-07-07T11:58:50.035Z,3.30
2018-07-07T11:59:50.236Z,3.50
2018-07-07T12:00:50.429Z,2.20
2018-07-07T12:01:50.639Z,2.10
2018-07-07T12:02:50.825Z,2.00
2018-07-07T12:03:51.001Z,2.00
2018-07-07T12:04:51.226Z,1.40
2018-07-07T12:05:51.382Z,2.60
2018-07-07T12:06:51.586Z,2.20
2018-07-07T12:08:00.714Z,2.00
2018-07-07T12:08:52.808Z,1.30
2018-07-07T12:09:52.179Z,1.90
2018-07-07T12:10:52.365Z,2.50
2018-07-07T12:11:52.564Z,2.50
2018-07-07T12:12:52.747Z,2.10
2018-07-07T12:13:53.054Z,1.60
2018-07-07T12:14:53.151Z,2.60
2018-07-07T12:15:53.230Z,2.50
2018-07-07T12:16:53.447Z,2.80
2018-07-07T12:17:53.628Z,2.20
2018-07-07T12:18:53.821Z,3.50
2018-07-07T12:19:54.000Z,2.50
2018-07-07T12:20:54.212Z,2.30
2018-07-07T12:21:54.451Z,1.90
2018-07-07T12:22:54.649Z,2.50
2018-07-07T12:23:54.826Z,2.70
2018-07-07T12:24:55.099Z,3.50
2018-07-07T12:25:55.357Z,2.00
2018-07-07T12:26:55.427Z,1.90
2018-07-07T12:27:55.688Z,1.90
2018-07-07T12:28:55.745Z,2.20
2018-07-07T12:29:56.050Z,2.60
2018-07-07T12:30:56.118Z,2.40
2018-07-07T12:31:56.311Z,2.40
2018-07-07T12:32:56.511Z,2.20
2018-07-07T12:33:57.139Z,2.10
2018-07-07T12:34:56.874Z,1.90
2018-07-07T12:35:57.071Z,2.60
2018-07-07T12:36:57.359Z,1.60
2018-07-07T12:37:57.439Z,2.70
2018-07-07T12:38:57.754Z,2.60
2018-07-07T12:39:58.098Z,3.00
2018-07-07T12:40:57.982Z,2.20
2018-07-07T12:41:58.206Z,2.50
2018-07-07T12:42:58.399Z,2.20
2018-07-07T12:43:58.612Z,2.40
2018-07-07T12:44:58.807Z,1.80
2018-07-07T12:45:59.112Z,2.70
2018-07-07T12:46:59.225Z,2.10
2018-07-07T12:47:59.468Z,2.60
2018-07-07T12:48:59.704Z,4.20
2018-07-07T12:49:59.864Z,3.20
2018-07-07T12:51:00.081Z,2.40
2018-07-07T12:52:00.373Z,1.60
2018-07-07T12:53:00.387Z,2.40
2018-07-07T12:54:00.619Z,2.50
2018-07-07T12:55:00.775Z,2.00
2018-07-07T12:56:00.973Z,1.70
2018-07-07T12:57:01.186Z,2.30
2018-07-07T12:58:01.408Z,4.00
2018-07-07T12:59:01.661Z,3.60
2018-07-07T13:00:01.782Z,3.00
2018-07-07T13:01:01.995Z,1.80
2018-07-07T13:02:02.196Z,2.60
2018-07-07T13:03:02.606Z,3.00
2018-07-07T13:04:02.794Z,2.50
2018-07-07T13:05:02.710Z,2.90
2018-07-07T13:06:02.917Z,2.20
2018-07-07T13:07:03.153Z,1.90
2018-07-07T13:08:03.353Z,2.20
2018-07-07T13:09:03.586Z,2.00
2018-07-07T13:10:03.811Z,1.90
2018-07-07T13:11:03.989Z,2.50
2018-07-07T13:12:04.201Z,2.20
2018-07-07T13:13:04.455Z,2.30
2018-07-07T13:14:04.570Z,2.50
2018-07-07T13:15:04.707Z,2.00
2018-07-07T13:16:04.740Z,2.90
2018-07-07T13:17:05.224Z,2.30
2018-07-07T13:18:05.597Z,2.40
2018-07-07T13:19:05.465Z,2.50
2018-07-07T13:20:05.535Z,1.90
2018-07-07T13:21:05.738Z,2.20